sensor_id;sensor_type;location;lat;lon;timestamp;pressure;altitude;pressure_sealevel;temperature;humidity
61963;BME280;47927;42.646;23.096;2022-10-31T00:01:18;92657.88;;;11.84;50.75
61963;BME280;47927;42.646;23.096;2022-10-31T00:03:44;92665.03;;;11.88;50.01
61963;BME280;47927;42.646;23.096;2022-10-31T00:06:09;92660.00;;;11.75;50.63
61963;BME280;47927;42.646;23.096;2022-10-31T00:08:35;92649.06;;;11.66;50.99
61963;BME280;47927;42.646;23.096;2022-10-31T00:11:00;92574.66;;;11.19;50.71
61963;BME280;47927;42.646;23.096;2022-10-31T00:13:26;92656.63;;;11.75;50.71
61963;BME280;47927;42.646;23.096;2022-10-31T00:15:52;92647.84;;;11.60;51.03
61963;BME280;47927;42.646;23.096;2022-10-31T00:18:17;92660.66;;;11.69;50.79
61963;BME280;47927;42.646;23.096;2022-10-31T00:20:43;92663.22;;;11.65;51.00
61963;BME280;47927;42.646;23.096;2022-10-31T00:23:09;92653.78;;;11.57;51.55
61963;BME280;47927;42.646;23.096;2022-10-31T00:25:38;92653.69;;;11.50;51.90
61963;BME280;47927;42.646;23.096;2022-10-31T00:28:06;92657.25;;;11.38;51.96
61963;BME280;47927;42.646;23.096;2022-10-31T00:30:32;92651.44;;;11.48;51.45
61963;BME280;47927;42.646;23.096;2022-10-31T00:32:58;92605.63;;;11.24;51.38
61963;BME280;47927;42.646;23.096;2022-10-31T00:35:23;92626.97;;;11.30;52.24
61963;BME280;47927;42.646;23.096;2022-10-31T00:37:49;92651.38;;;11.18;53.27
61963;BME280;47927;42.646;23.096;2022-10-31T00:40:15;92592.81;;;11.12;52.58
61963;BME280;47927;42.646;23.096;2022-10-31T00:42:41;92643.63;;;11.48;52.52
61963;BME280;47927;42.646;23.096;2022-10-31T00:45:08;92649.34;;;11.57;52.08
61963;BME280;47927;42.646;23.096;2022-10-31T00:47:34;92644.25;;;11.68;51.11
61963;BME280;47927;42.646;23.096;2022-10-31T00:49:59;92644.66;;;11.44;52.29
61963;BME280;47927;42.646;23.096;2022-10-31T00:52:25;92643.34;;;11.57;52.14
61963;BME280;47927;42.646;23.096;2022-10-31T00:54:50;92591.41;;;11.18;52.29
61963;BME280;47927;42.646;23.096;2022-10-31T00:57:16;92603.56;;;11.33;51.69
61963;BME280;47927;42.646;23.096;2022-10-31T00:59:42;92637.34;;;11.53;51.64
61963;BME280;47927;42.646;23.096;2022-10-31T01:02:08;92642.09;;;11.47;51.63
61963;BME280;47927;42.646;23.096;2022-10-31T01:04:33;92646.81;;;11.38;52.28
61963;BME280;47927;42.646;23.096;2022-10-31T01:06:59;92642.59;;;11.30;52.43
61963;BME280;47927;42.646;23.096;2022-10-31T01:09:25;92643.75;;;11.32;52.36
61963;BME280;47927;42.646;23.096;2022-10-31T01:11:50;92648.97;;;11.32;53.17
61963;BME280;47927;42.646;23.096;2022-10-31T01:14:16;92560.72;;;10.81;53.04
61963;BME280;47927;42.646;23.096;2022-10-31T01:16:41;92588.91;;;10.99;52.87
61963;BME280;47927;42.646;23.096;2022-10-31T01:19:07;92632.28;;;11.37;52.38
61963;BME280;47927;42.646;23.096;2022-10-31T01:21:32;92582.56;;;11.00;51.94
61963;BME280;47927;42.646;23.096;2022-10-31T01:23:59;92650.19;;;11.38;52.02
61963;BME280;47927;42.646;23.096;2022-10-31T01:26:29;92617.88;;;10.93;52.91
61963;BME280;47927;42.646;23.096;2022-10-31T01:29:03;92652.16;;;10.95;53.86
61963;BME280;47927;42.646;23.096;2022-10-31T01:31:31;92649.66;;;11.03;53.75
61963;BME280;47927;42.646;23.096;2022-10-31T01:33:58;92653.16;;;11.10;53.55
61963;BME280;47927;42.646;23.096;2022-10-31T01:36:28;92646.78;;;11.08;53.68
61963;BME280;47927;42.646;23.096;2022-10-31T01:38:56;92642.44;;;10.92;54.57
61963;BME280;47927;42.646;23.096;2022-10-31T01:41:25;92620.16;;;10.72;55.67
61963;BME280;47927;42.646;23.096;2022-10-31T01:43:55;92645.03;;;11.15;54.78
61963;BME280;47927;42.646;23.096;2022-10-31T01:46:32;92620.31;;;11.09;55.33
61963;BME280;47927;42.646;23.096;2022-10-31T01:49:00;92644.72;;;11.47;54.55
61963;BME280;47927;42.646;23.096;2022-10-31T01:51:30;92646.19;;;11.75;54.49
61963;BME280;47927;42.646;23.096;2022-10-31T01:54:01;92640.16;;;11.97;53.37
61963;BME280;47927;42.646;23.096;2022-10-31T01:56:27;92639.56;;;12.11;52.90
61963;BME280;47927;42.646;23.096;2022-10-31T01:58:54;92619.56;;;11.62;53.82
61963;BME280;47927;42.646;23.096;2022-10-31T02:01:21;92641.25;;;11.66;53.93
61963;BME280;47927;42.646;23.096;2022-10-31T02:03:48;92570.44;;;11.37;53.85
61963;BME280;47927;42.646;23.096;2022-10-31T02:06:25;92639.41;;;11.97;53.45
61963;BME280;47927;42.646;23.096;2022-10-31T02:08:53;92642.63;;;12.17;52.44
61963;BME280;47927;42.646;23.096;2022-10-31T02:11:20;92634.19;;;12.34;51.73
61963;BME280;47927;42.646;23.096;2022-10-31T02:13:46;92597.03;;;12.11;51.53
61963;BME280;47927;42.646;23.096;2022-10-31T02:16:12;92645.78;;;12.37;51.70
61963;BME280;47927;42.646;23.096;2022-10-31T02:18:38;92645.31;;;12.61;51.08
61963;BME280;47927;42.646;23.096;2022-10-31T02:24:12;92643.38;;;12.58;50.56
61963;BME280;47927;42.646;23.096;2022-10-31T02:27:11;92653.44;;;12.52;50.75
61963;BME280;47927;42.646;23.096;2022-10-31T02:40:25;92613.09;;;12.94;50.49
61963;BME280;47927;42.646;23.096;2022-10-31T02:43:28;92602.25;;;12.99;50.24
61963;BME280;47927;42.646;23.096;2022-10-31T02:48:34;92655.66;;;13.39;50.09
61963;BME280;47927;42.646;23.096;2022-10-31T02:51:04;92664.22;;;13.33;50.58
61963;BME280;47927;42.646;23.096;2022-10-31T02:53:35;92611.19;;;12.91;51.07
61963;BME280;47927;42.646;23.096;2022-10-31T02:56:05;92657.53;;;13.42;50.44
61963;BME280;47927;42.646;23.096;2022-10-31T02:59:01;92656.06;;;13.45;50.65
61963;BME280;47927;42.646;23.096;2022-10-31T03:01:40;92659.38;;;13.38;50.78
61963;BME280;47927;42.646;23.096;2022-10-31T03:04:42;92666.03;;;13.29;50.86
61963;BME280;47927;42.646;23.096;2022-10-31T03:10:18;92666.63;;;13.11;51.36
61963;BME280;47927;42.646;23.096;2022-10-31T03:13:06;92659.84;;;13.03;51.47
61963;BME280;47927;42.646;23.096;2022-10-31T03:15:37;92667.19;;;12.87;51.95
61963;BME280;47927;42.646;23.096;2022-10-31T03:18:29;92666.47;;;12.90;51.98
61963;BME280;47927;42.646;23.096;2022-10-31T03:23:30;92668.56;;;12.73;51.86
61963;BME280;47927;42.646;23.096;2022-10-31T03:25:58;92669.78;;;12.46;52.63
61963;BME280;47927;42.646;23.096;2022-10-31T03:28:30;92672.16;;;12.24;53.19
61963;BME280;47927;42.646;23.096;2022-10-31T03:30:58;92676.13;;;12.11;54.01
61963;BME280;47927;42.646;23.096;2022-10-31T03:33:29;92667.75;;;12.28;53.59
61963;BME280;47927;42.646;23.096;2022-10-31T03:35:58;92671.19;;;12.36;53.37
61963;BME280;47927;42.646;23.096;2022-10-31T03:38:25;92685.16;;;12.17;53.73
61963;BME280;47927;42.646;23.096;2022-10-31T03:40:54;92612.63;;;11.73;53.58
61963;BME280;47927;42.646;23.096;2022-10-31T03:43:27;92654.25;;;11.93;53.80
61963;BME280;47927;42.646;23.096;2022-10-31T03:45:54;92682.06;;;12.08;53.84
61963;BME280;47927;42.646;23.096;2022-10-31T03:48:20;92696.22;;;12.07;54.07
61963;BME280;47927;42.646;23.096;2022-10-31T03:51:11;92691.44;;;12.13;54.48
61963;BME280;47927;42.646;23.096;2022-10-31T03:53:56;92697.81;;;12.15;54.28
61963;BME280;47927;42.646;23.096;2022-10-31T03:56:36;92690.91;;;12.00;54.34
61963;BME280;47927;42.646;23.096;2022-10-31T03:59:07;92700.09;;;12.17;54.27
61963;BME280;47927;42.646;23.096;2022-10-31T04:01:39;92664.81;;;12.00;54.00
61963;BME280;47927;42.646;23.096;2022-10-31T04:04:06;92699.50;;;12.34;53.92
61963;BME280;47927;42.646;23.096;2022-10-31T04:06:34;92701.91;;;12.46;53.55
61963;BME280;47927;42.646;23.096;2022-10-31T04:09:03;92691.03;;;12.41;53.57
61963;BME280;47927;42.646;23.096;2022-10-31T04:11:41;92706.69;;;12.41;54.39
61963;BME280;47927;42.646;23.096;2022-10-31T04:14:39;92706.47;;;12.57;54.14
61963;BME280;47927;42.646;23.096;2022-10-31T04:17:10;92694.63;;;12.66;53.79
61963;BME280;47927;42.646;23.096;2022-10-31T04:19:59;92703.69;;;12.76;53.39
61963;BME280;47927;42.646;23.096;2022-10-31T04:22:25;92706.78;;;12.85;53.36
61963;BME280;47927;42.646;23.096;2022-10-31T04:24:51;92710.59;;;12.95;53.01
61963;BME280;47927;42.646;23.096;2022-10-31T04:27:17;92715.88;;;13.02;53.40
61963;BME280;47927;42.646;23.096;2022-10-31T04:29:43;92716.00;;;13.16;53.11
61963;BME280;47927;42.646;23.096;2022-10-31T04:32:08;92680.41;;;13.05;53.02
61963;BME280;47927;42.646;23.096;2022-10-31T04:34:34;92710.53;;;13.29;52.77
61963;BME280;47927;42.646;23.096;2022-10-31T04:37:00;92706.88;;;13.44;52.46
61963;BME280;47927;42.646;23.096;2022-10-31T04:39:26;92705.09;;;13.55;52.43
61963;BME280;47927;42.646;23.096;2022-10-31T04:42:21;92708.84;;;13.54;52.44
61963;BME280;47927;42.646;23.096;2022-10-31T04:44:46;92706.59;;;13.56;52.20
61963;BME280;47927;42.646;23.096;2022-10-31T04:47:13;92707.78;;;13.62;52.19
61963;BME280;47927;42.646;23.096;2022-10-31T04:49:38;92708.66;;;13.29;53.20
61963;BME280;47927;42.646;23.096;2022-10-31T04:52:04;92714.75;;;13.44;52.83
61963;BME280;47927;42.646;23.096;2022-10-31T04:54:30;92717.41;;;13.48;52.86
61963;BME280;47927;42.646;23.096;2022-10-31T04:57:14;92721.22;;;13.57;52.20
61963;BME280;47927;42.646;23.096;2022-10-31T04:59:41;92719.34;;;13.58;52.44
61963;BME280;47927;42.646;23.096;2022-10-31T05:02:07;92658.44;;;13.13;52.04
61963;BME280;47927;42.646;23.096;2022-10-31T05:04:43;92724.47;;;13.47;52.38
61963;BME280;47927;42.646;23.096;2022-10-31T05:07:09;92674.72;;;12.95;52.80
61963;BME280;47927;42.646;23.096;2022-10-31T05:09:35;92734.59;;;13.45;52.45
61963;BME280;47927;42.646;23.096;2022-10-31T05:12:00;92704.97;;;13.37;52.50
61963;BME280;47927;42.646;23.096;2022-10-31T05:15:01;92738.06;;;13.63;51.71
61963;BME280;47927;42.646;23.096;2022-10-31T05:17:45;92701.41;;;13.12;52.32
61963;BME280;47927;42.646;23.096;2022-10-31T05:20:30;92743.94;;;13.46;51.87
61963;BME280;47927;42.646;23.096;2022-10-31T05:23:16;92747.25;;;13.39;51.98
61963;BME280;47927;42.646;23.096;2022-10-31T05:25:41;92753.19;;;13.33;52.06
61963;BME280;47927;42.646;23.096;2022-10-31T05:28:07;92750.34;;;13.11;52.48
61963;BME280;47927;42.646;23.096;2022-10-31T05:30:34;92729.69;;;12.99;52.79
61963;BME280;47927;42.646;23.096;2022-10-31T05:33:00;92745.81;;;13.08;53.05
61963;BME280;47927;42.646;23.096;2022-10-31T05:35:54;92712.41;;;12.50;54.15
61963;BME280;47927;42.646;23.096;2022-10-31T05:38:46;92753.22;;;12.62;54.35
61963;BME280;47927;42.646;23.096;2022-10-31T05:41:20;92758.59;;;12.42;55.06
61963;BME280;47927;42.646;23.096;2022-10-31T05:43:46;92753.47;;;12.49;55.21
61963;BME280;47927;42.646;23.096;2022-10-31T05:46:13;92764.00;;;12.60;54.84
61963;BME280;47927;42.646;23.096;2022-10-31T05:48:56;92766.63;;;12.94;53.84
61963;BME280;47927;42.646;23.096;2022-10-31T05:51:28;92754.47;;;15.28;49.52
61963;BME280;47927;42.646;23.096;2022-10-31T05:53:53;92757.41;;;17.77;43.51
61963;BME280;47927;42.646;23.096;2022-10-31T05:56:20;92752.63;;;20.07;38.70
61963;BME280;47927;42.646;23.096;2022-10-31T05:58:45;92763.16;;;21.79;34.94
61963;BME280;47927;42.646;23.096;2022-10-31T06:01:12;92756.28;;;23.28;32.14
61963;BME280;47927;42.646;23.096;2022-10-31T06:03:38;92760.75;;;24.51;29.84
61963;BME280;47927;42.646;23.096;2022-10-31T06:06:07;92761.38;;;25.71;27.85
61963;BME280;47927;42.646;23.096;2022-10-31T06:08:36;92770.41;;;26.78;26.33
61963;BME280;47927;42.646;23.096;2022-10-31T06:11:05;92775.75;;;27.48;25.24
61963;BME280;47927;42.646;23.096;2022-10-31T06:14:04;92696.19;;;27.25;24.78
61963;BME280;47927;42.646;23.096;2022-10-31T06:16:54;92782.69;;;28.22;23.79
61963;BME280;47927;42.646;23.096;2022-10-31T06:19:38;92751.09;;;28.50;23.04
61963;BME280;47927;42.646;23.096;2022-10-31T06:22:04;92747.78;;;28.70;22.27
61963;BME280;47927;42.646;23.096;2022-10-31T06:24:31;92792.16;;;29.39;21.78
61963;BME280;47927;42.646;23.096;2022-10-31T06:27:24;92782.75;;;29.79;21.05
61963;BME280;47927;42.646;23.096;2022-10-31T06:29:49;92759.59;;;29.82;20.49
61963;BME280;47927;42.646;23.096;2022-10-31T06:32:41;92794.84;;;30.45;20.17
61963;BME280;47927;42.646;23.096;2022-10-31T06:35:08;92797.41;;;31.01;19.67
61963;BME280;47927;42.646;23.096;2022-10-31T06:37:34;92764.06;;;30.93;19.35
61963;BME280;47927;42.646;23.096;2022-10-31T06:40:11;92768.97;;;30.48;19.76
61963;BME280;47927;42.646;23.096;2022-10-31T06:42:56;92779.41;;;31.39;19.46
61963;BME280;47927;42.646;23.096;2022-10-31T06:45:22;92796.72;;;31.64;19.42
61963;BME280;47927;42.646;23.096;2022-10-31T06:48:08;92800.78;;;30.96;19.35
61963;BME280;47927;42.646;23.096;2022-10-31T06:50:39;92804.47;;;30.98;19.83
61963;BME280;47927;42.646;23.096;2022-10-31T06:53:05;92805.00;;;30.35;20.23
61963;BME280;47927;42.646;23.096;2022-10-31T06:55:30;92815.63;;;30.85;19.58
61963;BME280;47927;42.646;23.096;2022-10-31T06:57:58;92807.34;;;31.41;19.16
61963;BME280;47927;42.646;23.096;2022-10-31T07:00:26;92812.50;;;31.45;18.88
61963;BME280;47927;42.646;23.096;2022-10-31T07:03:04;92809.81;;;31.82;18.59
61963;BME280;47927;42.646;23.096;2022-10-31T07:05:31;92805.91;;;31.77;19.12
61963;BME280;47927;42.646;23.096;2022-10-31T07:08:02;92804.22;;;32.23;18.14
61963;BME280;47927;42.646;23.096;2022-10-31T07:10:30;92814.75;;;32.70;17.81
61963;BME280;47927;42.646;23.096;2022-10-31T07:13:03;92817.56;;;33.20;17.61
61963;BME280;47927;42.646;23.096;2022-10-31T07:15:36;92815.84;;;33.34;17.58
61963;BME280;47927;42.646;23.096;2022-10-31T07:18:04;92806.78;;;33.20;17.33
61963;BME280;47927;42.646;23.096;2022-10-31T07:20:30;92817.66;;;32.17;18.52
61963;BME280;47927;42.646;23.096;2022-10-31T07:22:56;92816.41;;;32.61;18.28
61963;BME280;47927;42.646;23.096;2022-10-31T07:25:23;92817.00;;;32.94;18.33
61963;BME280;47927;42.646;23.096;2022-10-31T07:28:09;92811.19;;;33.18;17.63
61963;BME280;47927;42.646;23.096;2022-10-31T07:30:35;92792.81;;;33.61;17.94
61963;BME280;47927;42.646;23.096;2022-10-31T07:33:00;92803.03;;;34.30;16.41
61963;BME280;47927;42.646;23.096;2022-10-31T07:35:46;92810.59;;;34.54;16.86
61963;BME280;47927;42.646;23.096;2022-10-31T07:38:14;92770.06;;;34.32;16.40
61963;BME280;47927;42.646;23.096;2022-10-31T07:40:41;92801.38;;;34.74;16.44
61963;BME280;47927;42.646;23.096;2022-10-31T07:43:07;92795.09;;;34.43;16.45
61963;BME280;47927;42.646;23.096;2022-10-31T07:45:52;92804.63;;;34.67;16.59
61963;BME280;47927;42.646;23.096;2022-10-31T07:48:37;92804.84;;;34.75;16.59
61963;BME280;47927;42.646;23.096;2022-10-31T07:51:29;92801.53;;;35.40;16.19
61963;BME280;47927;42.646;23.096;2022-10-31T07:54:14;92765.69;;;35.53;15.65
61963;BME280;47927;42.646;23.096;2022-10-31T07:56:39;92798.56;;;35.74;15.83
61963;BME280;47927;42.646;23.096;2022-10-31T07:59:05;92798.81;;;36.00;15.40
61963;BME280;47927;42.646;23.096;2022-10-31T08:01:49;92801.91;;;35.86;15.78
61963;BME280;47927;42.646;23.096;2022-10-31T08:04:41;92799.94;;;36.11;15.42
61963;BME280;47927;42.646;23.096;2022-10-31T08:07:26;92801.13;;;36.15;15.05
61963;BME280;47927;42.646;23.096;2022-10-31T08:09:58;92805.34;;;35.86;14.86
61963;BME280;47927;42.646;23.096;2022-10-31T08:12:28;92803.88;;;35.85;15.37
61963;BME280;47927;42.646;23.096;2022-10-31T08:14:53;92800.09;;;36.43;15.21
61963;BME280;47927;42.646;23.096;2022-10-31T08:17:19;92766.56;;;35.97;15.20
61963;BME280;47927;42.646;23.096;2022-10-31T08:19:54;92802.06;;;36.23;14.91
61963;BME280;47927;42.646;23.096;2022-10-31T08:22:24;92804.25;;;36.68;14.63
61963;BME280;47927;42.646;23.096;2022-10-31T08:24:50;92799.44;;;36.12;15.12
61963;BME280;47927;42.646;23.096;2022-10-31T08:27:16;92800.31;;;35.96;15.31
61963;BME280;47927;42.646;23.096;2022-10-31T08:29:42;92801.38;;;35.87;15.38
61963;BME280;47927;42.646;23.096;2022-10-31T08:32:07;92804.94;;;36.01;15.26
61963;BME280;47927;42.646;23.096;2022-10-31T08:34:53;92803.75;;;35.96;14.76
61963;BME280;47927;42.646;23.096;2022-10-31T08:37:27;92804.78;;;35.63;15.28
61963;BME280;47927;42.646;23.096;2022-10-31T08:39:54;92814.09;;;35.73;15.24
61963;BME280;47927;42.646;23.096;2022-10-31T08:42:20;92797.88;;;35.92;15.51
61963;BME280;47927;42.646;23.096;2022-10-31T08:44:46;92810.75;;;35.86;15.29
61963;BME280;47927;42.646;23.096;2022-10-31T08:47:12;92797.97;;;35.56;15.89
61963;BME280;47927;42.646;23.096;2022-10-31T08:49:38;92801.66;;;35.83;15.14
61963;BME280;47927;42.646;23.096;2022-10-31T08:52:03;92804.09;;;35.57;15.72
61963;BME280;47927;42.646;23.096;2022-10-31T08:54:33;92781.28;;;35.77;14.84
61963;BME280;47927;42.646;23.096;2022-10-31T08:57:17;92804.84;;;35.57;15.70
61963;BME280;47927;42.646;23.096;2022-10-31T08:59:45;92813.13;;;35.71;15.70
61963;BME280;47927;42.646;23.096;2022-10-31T09:02:33;92810.50;;;35.59;15.26
61963;BME280;47927;42.646;23.096;2022-10-31T09:05:00;92801.28;;;35.38;14.99
61963;BME280;47927;42.646;23.096;2022-10-31T09:07:26;92807.97;;;35.31;15.34
61963;BME280;47927;42.646;23.096;2022-10-31T09:09:53;92815.00;;;35.10;15.33
61963;BME280;47927;42.646;23.096;2022-10-31T09:12:18;92812.53;;;35.12;15.80
61963;BME280;47927;42.646;23.096;2022-10-31T09:14:47;92816.81;;;34.90;15.65
61963;BME280;47927;42.646;23.096;2022-10-31T09:17:24;92807.13;;;34.54;16.61
61963;BME280;47927;42.646;23.096;2022-10-31T09:20:17;92810.72;;;33.87;16.51
61963;BME280;47927;42.646;23.096;2022-10-31T09:22:42;92790.56;;;33.88;16.89
61963;BME280;47927;42.646;23.096;2022-10-31T09:25:08;92817.31;;;34.19;16.03
61963;BME280;47927;42.646;23.096;2022-10-31T09:27:37;92808.03;;;33.75;17.04
61963;BME280;47927;42.646;23.096;2022-10-31T09:30:05;92803.59;;;33.44;16.97
61963;BME280;47927;42.646;23.096;2022-10-31T09:32:32;92805.78;;;33.23;17.67
61963;BME280;47927;42.646;23.096;2022-10-31T09:34:59;92813.41;;;33.25;17.47
61963;BME280;47927;42.646;23.096;2022-10-31T09:37:24;92779.22;;;32.94;17.32
61963;BME280;47927;42.646;23.096;2022-10-31T09:39:50;92811.44;;;33.31;17.13
61963;BME280;47927;42.646;23.096;2022-10-31T09:42:45;92803.84;;;33.29;17.60
61963;BME280;47927;42.646;23.096;2022-10-31T09:45:41;92800.31;;;32.95;18.21
61963;BME280;47927;42.646;23.096;2022-10-31T09:48:45;92800.88;;;33.16;18.15
61963;BME280;47927;42.646;23.096;2022-10-31T09:51:35;92779.69;;;32.75;17.85
61963;BME280;47927;42.646;23.096;2022-10-31T09:57:10;92765.09;;;31.59;18.81
61963;BME280;47927;42.646;23.096;2022-10-31T09:59:40;92800.47;;;32.09;18.47
61963;BME280;47927;42.646;23.096;2022-10-31T10:05:10;92804.47;;;30.98;20.18
61963;BME280;47927;42.646;23.096;2022-10-31T10:08:03;92793.81;;;31.09;19.45
61963;BME280;47927;42.646;23.096;2022-10-31T10:10:56;92792.09;;;30.39;20.65
61963;BME280;47927;42.646;23.096;2022-10-31T10:32:23;92778.84;;;28.76;22.54
61963;BME280;47927;42.646;23.096;2022-10-31T10:34:51;92738.09;;;28.33;22.78
61963;BME280;47927;42.646;23.096;2022-10-31T10:37:31;92746.22;;;28.00;23.34
61963;BME280;47927;42.646;23.096;2022-10-31T10:40:15;92769.72;;;28.05;23.59
61963;BME280;47927;42.646;23.096;2022-10-31T10:42:45;92731.63;;;28.01;23.22
61963;BME280;47927;42.646;23.096;2022-10-31T10:48:49;92766.66;;;27.55;24.41
61963;BME280;47927;42.646;23.096;2022-10-31T10:51:28;92752.13;;;27.47;24.59
61963;BME280;47927;42.646;23.096;2022-10-31T10:57:00;92760.28;;;27.86;24.10
61963;BME280;47927;42.646;23.096;2022-10-31T10:59:29;92740.25;;;27.81;23.70
61963;BME280;47927;42.646;23.096;2022-10-31T11:01:58;92727.03;;;26.84;24.95
61963;BME280;47927;42.646;23.096;2022-10-31T11:07:06;92758.53;;;26.70;24.86
61963;BME280;47927;42.646;23.096;2022-10-31T11:09:33;92766.56;;;26.52;25.82
61963;BME280;47927;42.646;23.096;2022-10-31T11:12:09;92727.22;;;25.97;25.82
61963;BME280;47927;42.646;23.096;2022-10-31T11:14:45;92753.06;;;26.55;25.81
61963;BME280;47927;42.646;23.096;2022-10-31T11:17:31;92743.25;;;26.25;25.51
61963;BME280;47927;42.646;23.096;2022-10-31T11:20:01;92746.97;;;26.36;25.85
61963;BME280;47927;42.646;23.096;2022-10-31T11:22:27;92748.16;;;26.63;25.97
61963;BME280;47927;42.646;23.096;2022-10-31T11:24:53;92746.38;;;26.69;25.58
61963;BME280;47927;42.646;23.096;2022-10-31T11:27:24;92741.00;;;26.78;25.58
61963;BME280;47927;42.646;23.096;2022-10-31T11:29:50;92735.91;;;26.99;25.36
61963;BME280;47927;42.646;23.096;2022-10-31T11:32:22;92698.56;;;26.71;25.12
61963;BME280;47927;42.646;23.096;2022-10-31T11:35:01;92724.53;;;25.97;26.31
61963;BME280;47927;42.646;23.096;2022-10-31T11:37:31;92729.84;;;25.38;26.65
61963;BME280;47927;42.646;23.096;2022-10-31T11:40:03;92739.44;;;25.27;27.13
61963;BME280;47927;42.646;23.096;2022-10-31T11:42:37;92732.22;;;25.36;26.85
61963;BME280;47927;42.646;23.096;2022-10-31T11:45:13;92729.56;;;25.36;26.20
61963;BME280;47927;42.646;23.096;2022-10-31T11:47:42;92688.63;;;25.30;26.85
61963;BME280;47927;42.646;23.096;2022-10-31T11:50:11;92675.16;;;25.34;26.67
61963;BME280;47927;42.646;23.096;2022-10-31T11:52:43;92716.91;;;25.77;26.67
61963;BME280;47927;42.646;23.096;2022-10-31T11:57:56;92699.28;;;25.80;25.86
61963;BME280;47927;42.646;23.096;2022-10-31T12:02:50;92709.94;;;25.21;26.94
61963;BME280;47927;42.646;23.096;2022-10-31T12:05:26;92702.63;;;25.12;27.60
61963;BME280;47927;42.646;23.096;2022-10-31T12:07:58;92717.94;;;24.90;27.38
61963;BME280;47927;42.646;23.096;2022-10-31T12:10:30;92708.84;;;25.40;27.07
61963;BME280;47927;42.646;23.096;2022-10-31T12:13:22;92712.41;;;25.46;26.72
61963;BME280;47927;42.646;23.096;2022-10-31T12:16:00;92707.69;;;25.60;26.68
61963;BME280;47927;42.646;23.096;2022-10-31T12:21:20;92707.69;;;24.88;27.48
61963;BME280;47927;42.646;23.096;2022-10-31T12:32:21;92705.13;;;25.38;27.09
61963;BME280;47927;42.646;23.096;2022-10-31T12:35:24;92701.78;;;25.65;26.54
61963;BME280;47927;42.646;23.096;2022-10-31T12:54:19;92699.75;;;24.66;27.83
61963;BME280;47927;42.646;23.096;2022-10-31T12:59:40;92699.84;;;24.63;27.94
61963;BME280;47927;42.646;23.096;2022-10-31T13:02:29;92704.78;;;24.42;28.29
61963;BME280;47927;42.646;23.096;2022-10-31T13:05:05;92702.16;;;24.51;28.48
61963;BME280;47927;42.646;23.096;2022-10-31T13:07:41;92691.97;;;24.37;28.23
61963;BME280;47927;42.646;23.096;2022-10-31T13:10:48;92713.75;;;24.89;27.85
61963;BME280;47927;42.646;23.096;2022-10-31T13:13:24;92708.91;;;24.43;28.34
61963;BME280;47927;42.646;23.096;2022-10-31T13:15:57;92714.16;;;24.56;28.57
61963;BME280;47927;42.646;23.096;2022-10-31T13:18:29;92679.44;;;23.81;29.47
61963;BME280;47927;42.646;23.096;2022-10-31T13:20:57;92696.41;;;23.96;29.40
61963;BME280;47927;42.646;23.096;2022-10-31T13:23:29;92696.69;;;23.63;29.60
61963;BME280;47927;42.646;23.096;2022-10-31T13:25:56;92700.19;;;23.73;29.31
61963;BME280;47927;42.646;23.096;2022-10-31T13:28:45;92703.28;;;23.72;29.48
61963;BME280;47927;42.646;23.096;2022-10-31T13:31:11;92658.06;;;23.11;30.26
61963;BME280;47927;42.646;23.096;2022-10-31T13:33:42;92705.25;;;23.93;29.03
61963;BME280;47927;42.646;23.096;2022-10-31T13:44:36;92697.50;;;23.86;28.96
61963;BME280;47927;42.646;23.096;2022-10-31T13:47:28;92708.81;;;23.52;29.77
61963;BME280;47927;42.646;23.096;2022-10-31T13:50:23;92698.38;;;23.70;29.33
61963;BME280;47927;42.646;23.096;2022-10-31T13:52:49;92698.38;;;23.83;29.14
61963;BME280;47927;42.646;23.096;2022-10-31T13:55:37;92706.28;;;23.48;29.50
61963;BME280;47927;42.646;23.096;2022-10-31T13:58:16;92696.91;;;23.43;29.91
61963;BME280;47927;42.646;23.096;2022-10-31T14:00:44;92698.53;;;23.41;29.70
61963;BME280;47927;42.646;23.096;2022-10-31T14:03:18;92673.03;;;23.18;30.16
61963;BME280;47927;42.646;23.096;2022-10-31T14:05:52;92648.47;;;22.75;30.01
61963;BME280;47927;42.646;23.096;2022-10-31T14:08:20;92707.88;;;23.33;29.97
61963;BME280;47927;42.646;23.096;2022-10-31T14:10:49;92705.53;;;23.48;29.91
61963;BME280;47927;42.646;23.096;2022-10-31T14:13:26;92713.94;;;23.08;30.62
61963;BME280;47927;42.646;23.096;2022-10-31T14:15:56;92714.38;;;23.06;30.46
61963;BME280;47927;42.646;23.096;2022-10-31T14:18:29;92709.22;;;22.73;30.88
61963;BME280;47927;42.646;23.096;2022-10-31T14:20:56;92664.94;;;22.28;31.13
61963;BME280;47927;42.646;23.096;2022-10-31T14:23:34;92699.41;;;23.00;30.27
61963;BME280;47927;42.646;23.096;2022-10-31T14:29:02;92713.63;;;23.06;30.33
61963;BME280;47927;42.646;23.096;2022-10-31T14:31:53;92715.97;;;23.16;30.03
61963;BME280;47927;42.646;23.096;2022-10-31T14:40:03;92716.97;;;22.81;30.72
61963;BME280;47927;42.646;23.096;2022-10-31T14:45:30;92718.16;;;22.80;30.81
61963;BME280;47927;42.646;23.096;2022-10-31T14:50:50;92711.56;;;22.84;30.97
61963;BME280;47927;42.646;23.096;2022-10-31T14:53:52;92722.31;;;22.51;31.19
61963;BME280;47927;42.646;23.096;2022-10-31T14:56:24;92664.22;;;22.12;31.09
61963;BME280;47927;42.646;23.096;2022-10-31T14:58:53;92720.75;;;22.54;31.10
61963;BME280;47927;42.646;23.096;2022-10-31T15:01:32;92681.38;;;22.23;30.95
61963;BME280;47927;42.646;23.096;2022-10-31T15:04:18;92703.19;;;22.15;31.41
61963;BME280;47927;42.646;23.096;2022-10-31T15:06:49;92717.47;;;22.04;32.11
61963;BME280;47927;42.646;23.096;2022-10-31T15:09:24;92716.06;;;22.00;32.07
61963;BME280;47927;42.646;23.096;2022-10-31T15:11:51;92712.38;;;21.81;32.50
61963;BME280;47927;42.646;23.096;2022-10-31T15:14:28;92713.47;;;21.83;32.32